sensor_id;sensor_type;location;lat;lon;timestamp;temperature;humidity
360;DHT22;168;48.872;9.226;2023-03-26T00:00:46;8.80;94.30
360;DHT22;168;48.872;9.226;2023-03-26T00:03:16;8.70;93.80
360;DHT22;168;48.872;9.226;2023-03-26T00:05:44;8.60;93.60
360;DHT22;168;48.872;9.226;2023-03-26T00:08:14;8.60;94.00
360;DHT22;168;48.872;9.226;2023-03-26T00:10:43;8.60;93.70
360;DHT22;168;48.872;9.226;2023-03-26T00:13:11;8.60;93.70
360;DHT22;168;48.872;9.226;2023-03-26T00:15:38;8.60;94.10
360;DHT22;168;48.872;9.226;2023-03-26T00:18:06;8.50;94.00
360;DHT22;168;48.872;9.226;2023-03-26T00:20:35;8.50;94.20
360;DHT22;168;48.872;9.226;2023-03-26T00:23:03;8.50;94.30
360;DHT22;168;48.872;9.226;2023-03-26T00:25:31;8.50;94.50
360;DHT22;168;48.872;9.226;2023-03-26T00:28:01;8.50;94.20
360;DHT22;168;48.872;9.226;2023-03-26T00:30:28;8.50;94.40
360;DHT22;168;48.872;9.226;2023-03-26T00:32:56;8.50;94.60
360;DHT22;168;48.872;9.226;2023-03-26T00:35:24;8.50;95.00
360;DHT22;168;48.872;9.226;2023-03-26T00:37:51;8.50;95.00
360;DHT22;168;48.872;9.226;2023-03-26T00:40:18;8.50;95.00
360;DHT22;168;48.872;9.226;2023-03-26T00:42:55;8.50;95.00
360;DHT22;168;48.872;9.226;2023-03-26T00:45:40;8.40;94.90
360;DHT22;168;48.872;9.226;2023-03-26T00:48:23;8.40;95.00
360;DHT22;168;48.872;9.226;2023-03-26T00:51:02;8.50;95.20
360;DHT22;168;48.872;9.226;2023-03-26T00:56:44;8.60;95.40
360;DHT22;168;48.872;9.226;2023-03-26T00:59:14;8.50;95.30
360;DHT22;168;48.872;9.226;2023-03-26T01:05:48;8.50;95.30
360;DHT22;168;48.872;9.226;2023-03-26T01:08:27;8.60;95.10
360;DHT22;168;48.872;9.226;2023-03-26T01:11:16;8.70;95.40
360;DHT22;168;48.872;9.226;2023-03-26T01:13:50;8.60;95.40
360;DHT22;168;48.872;9.226;2023-03-26T01:16:24;8.60;95.40
360;DHT22;168;48.872;9.226;2023-03-26T01:19:01;8.50;95.50
360;DHT22;168;48.872;9.226;2023-03-26T01:21:45;8.50;95.50
360;DHT22;168;48.872;9.226;2023-03-26T01:24:41;8.50;95.50
360;DHT22;168;48.872;9.226;2023-03-26T01:27:49;8.50;95.60
360;DHT22;168;48.872;9.226;2023-03-26T01:30:47;8.50;95.50
360;DHT22;168;48.872;9.226;2023-03-26T01:33:55;8.50;95.30
360;DHT22;168;48.872;9.226;2023-03-26T01:39:43;8.50;95.10
360;DHT22;168;48.872;9.226;2023-03-26T01:42:24;8.60;95.20
360;DHT22;168;48.872;9.226;2023-03-26T01:44:56;8.60;95.20
360;DHT22;168;48.872;9.226;2023-03-26T01:47:26;8.60;95.10
360;DHT22;168;48.872;9.226;2023-03-26T01:49:54;8.60;95.40
360;DHT22;168;48.872;9.226;2023-03-26T01:52:22;8.50;95.20
360;DHT22;168;48.872;9.226;2023-03-26T01:54:53;8.50;95.20
360;DHT22;168;48.872;9.226;2023-03-26T01:57:30;8.60;95.50
360;DHT22;168;48.872;9.226;2023-03-26T02:00:09;8.60;95.60
360;DHT22;168;48.872;9.226;2023-03-26T02:02:48;8.60;95.70
360;DHT22;168;48.872;9.226;2023-03-26T02:05:22;8.60;95.80
360;DHT22;168;48.872;9.226;2023-03-26T02:07:55;8.60;95.60
360;DHT22;168;48.872;9.226;2023-03-26T02:10:27;8.60;95.70
360;DHT22;168;48.872;9.226;2023-03-26T02:12:56;8.70;95.80
360;DHT22;168;48.872;9.226;2023-03-26T02:15:23;8.70;96.00
360;DHT22;168;48.872;9.226;2023-03-26T02:17:51;8.60;95.80
360;DHT22;168;48.872;9.226;2023-03-26T02:20:20;8.70;95.90
360;DHT22;168;48.872;9.226;2023-03-26T02:22:47;8.70;95.90
360;DHT22;168;48.872;9.226;2023-03-26T02:25:16;8.60;95.80
360;DHT22;168;48.872;9.226;2023-03-26T02:27:48;8.60;95.90
360;DHT22;168;48.872;9.226;2023-03-26T02:30:18;8.70;96.00
360;DHT22;168;48.872;9.226;2023-03-26T02:32:45;8.70;96.10
360;DHT22;168;48.872;9.226;2023-03-26T02:35:17;8.70;96.00
360;DHT22;168;48.872;9.226;2023-03-26T02:37:44;8.80;96.10
360;DHT22;168;48.872;9.226;2023-03-26T02:40:12;8.80;96.10
360;DHT22;168;48.872;9.226;2023-03-26T02:42:39;8.90;96.00
360;DHT22;168;48.872;9.226;2023-03-26T02:45:08;9.10;96.30
360;DHT22;168;48.872;9.226;2023-03-26T02:47:36;9.00;96.30
360;DHT22;168;48.872;9.226;2023-03-26T02:50:03;9.00;96.40
360;DHT22;168;48.872;9.226;2023-03-26T02:52:31;9.00;96.30
360;DHT22;168;48.872;9.226;2023-03-26T02:54:58;9.10;96.40
360;DHT22;168;48.872;9.226;2023-03-26T02:57:26;9.10;96.30
360;DHT22;168;48.872;9.226;2023-03-26T02:59:54;9.10;96.30
360;DHT22;168;48.872;9.226;2023-03-26T03:02:22;9.00;96.40
360;DHT22;168;48.872;9.226;2023-03-26T03:04:50;9.00;96.30
360;DHT22;168;48.872;9.226;2023-03-26T03:07:17;9.00;96.40
360;DHT22;168;48.872;9.226;2023-03-26T03:09:45;9.00;96.30
360;DHT22;168;48.872;9.226;2023-03-26T03:12:15;9.10;96.50
360;DHT22;168;48.872;9.226;2023-03-26T03:14:43;9.10;96.30
360;DHT22;168;48.872;9.226;2023-03-26T03:17:10;9.20;96.50
360;DHT22;168;48.872;9.226;2023-03-26T03:19:39;9.20;96.40
360;DHT22;168;48.872;9.226;2023-03-26T03:22:06;9.10;96.40
360;DHT22;168;48.872;9.226;2023-03-26T03:24:34;9.10;96.40
360;DHT22;168;48.872;9.226;2023-03-26T03:27:01;9.10;96.40
360;DHT22;168;48.872;9.226;2023-03-26T03:29:29;9.10;96.40
360;DHT22;168;48.872;9.226;2023-03-26T03:31:56;9.10;96.40
360;DHT22;168;48.872;9.226;2023-03-26T03:34:25;9.10;96.30
360;DHT22;168;48.872;9.226;2023-03-26T03:36:54;9.10;96.30
360;DHT22;168;48.872;9.226;2023-03-26T03:39:21;9.20;96.40
360;DHT22;168;48.872;9.226;2023-03-26T03:41:48;9.30;96.40
360;DHT22;168;48.872;9.226;2023-03-26T03:44:19;9.40;96.50
360;DHT22;168;48.872;9.226;2023-03-26T03:46:46;9.40;96.40
360;DHT22;168;48.872;9.226;2023-03-26T03:49:18;9.40;96.40
360;DHT22;168;48.872;9.226;2023-03-26T03:51:46;9.40;96.40
360;DHT22;168;48.872;9.226;2023-03-26T03:54:15;9.40;96.40
360;DHT22;168;48.872;9.226;2023-03-26T03:56:42;9.40;96.30
360;DHT22;168;48.872;9.226;2023-03-26T03:59:10;9.40;96.30
360;DHT22;168;48.872;9.226;2023-03-26T04:01:38;9.50;96.30
360;DHT22;168;48.872;9.226;2023-03-26T04:04:08;9.50;96.40
360;DHT22;168;48.872;9.226;2023-03-26T04:06:35;9.60;96.40
360;DHT22;168;48.872;9.226;2023-03-26T04:09:04;9.70;96.30
360;DHT22;168;48.872;9.226;2023-03-26T04:11:33;9.70;96.30
360;DHT22;168;48.872;9.226;2023-03-26T04:14:00;9.60;96.30
360;DHT22;168;48.872;9.226;2023-03-26T04:16:28;9.60;96.30
360;DHT22;168;48.872;9.226;2023-03-26T04:18:55;9.60;96.30
360;DHT22;168;48.872;9.226;2023-03-26T04:21:23;9.60;96.30
360;DHT22;168;48.872;9.226;2023-03-26T04:23:51;9.60;96.30
360;DHT22;168;48.872;9.226;2023-03-26T04:26:19;9.60;96.40
360;DHT22;168;48.872;9.226;2023-03-26T04:28:50;9.50;96.30
360;DHT22;168;48.872;9.226;2023-03-26T04:31:20;9.60;96.50
360;DHT22;168;48.872;9.226;2023-03-26T04:33:50;9.60;96.30
360;DHT22;168;48.872;9.226;2023-03-26T04:36:26;9.70;96.50
360;DHT22;168;48.872;9.226;2023-03-26T04:38:55;9.70;96.30
360;DHT22;168;48.872;9.226;2023-03-26T04:41:27;9.60;96.30
360;DHT22;168;48.872;9.226;2023-03-26T04:43:56;9.60;96.40
360;DHT22;168;48.872;9.226;2023-03-26T04:46:26;9.60;96.30
360;DHT22;168;48.872;9.226;2023-03-26T04:48:58;9.60;96.30
360;DHT22;168;48.872;9.226;2023-03-26T04:51:32;9.60;96.40
360;DHT22;168;48.872;9.226;2023-03-26T04:54:04;9.60;96.40
360;DHT22;168;48.872;9.226;2023-03-26T04:56:50;9.70;96.40
360;DHT22;168;48.872;9.226;2023-03-26T04:59:22;9.70;96.30
360;DHT22;168;48.872;9.226;2023-03-26T05:01:51;9.70;96.40
360;DHT22;168;48.872;9.226;2023-03-26T05:04:18;9.70;96.30
360;DHT22;168;48.872;9.226;2023-03-26T05:06:46;9.80;96.30
360;DHT22;168;48.872;9.226;2023-03-26T05:09:14;9.80;96.20
360;DHT22;168;48.872;9.226;2023-03-26T05:11:42;9.80;96.10
360;DHT22;168;48.872;9.226;2023-03-26T05:14:09;9.80;96.20
360;DHT22;168;48.872;9.226;2023-03-26T05:16:38;9.80;96.20
360;DHT22;168;48.872;9.226;2023-03-26T05:19:07;9.70;96.20
360;DHT22;168;48.872;9.226;2023-03-26T05:21:35;9.70;96.20
360;DHT22;168;48.872;9.226;2023-03-26T05:24:02;9.70;96.20
360;DHT22;168;48.872;9.226;2023-03-26T05:26:31;9.60;96.30
360;DHT22;168;48.872;9.226;2023-03-26T05:29:02;9.60;96.30
360;DHT22;168;48.872;9.226;2023-03-26T05:31:30;9.60;96.30
360;DHT22;168;48.872;9.226;2023-03-26T05:33:59;9.70;96.40
360;DHT22;168;48.872;9.226;2023-03-26T05:36:26;9.80;96.30
360;DHT22;168;48.872;9.226;2023-03-26T05:38:54;9.90;96.30
360;DHT22;168;48.872;9.226;2023-03-26T05:41:22;9.90;96.00
360;DHT22;168;48.872;9.226;2023-03-26T05:43:49;9.90;96.00
360;DHT22;168;48.872;9.226;2023-03-26T05:46:17;9.90;96.10
360;DHT22;168;48.872;9.226;2023-03-26T05:48:45;9.90;96.20
360;DHT22;168;48.872;9.226;2023-03-26T05:51:14;9.90;96.20
360;DHT22;168;48.872;9.226;2023-03-26T05:53:41;9.90;96.20
360;DHT22;168;48.872;9.226;2023-03-26T05:56:09;10.00;96.20
360;DHT22;168;48.872;9.226;2023-03-26T05:58:37;10.10;96.10
360;DHT22;168;48.872;9.226;2023-03-26T06:01:06;10.10;95.80
360;DHT22;168;48.872;9.226;2023-03-26T06:03:37;10.10;95.90
360;DHT22;168;48.872;9.226;2023-03-26T06:06:11;10.10;96.10
360;DHT22;168;48.872;9.226;2023-03-26T06:08:41;10.10;96.10
360;DHT22;168;48.872;9.226;2023-03-26T06:11:11;10.10;96.10
360;DHT22;168;48.872;9.226;2023-03-26T06:13:42;10.20;95.60
360;DHT22;168;48.872;9.226;2023-03-26T06:16:10;10.20;95.70
360;DHT22;168;48.872;9.226;2023-03-26T06:18:38;10.20;95.80
360;DHT22;168;48.872;9.226;2023-03-26T06:21:08;10.10;95.90
360;DHT22;168;48.872;9.226;2023-03-26T06:23:37;10.00;95.90
360;DHT22;168;48.872;9.226;2023-03-26T06:26:06;10.00;95.60
360;DHT22;168;48.872;9.226;2023-03-26T06:28:33;10.10;95.60
360;DHT22;168;48.872;9.226;2023-03-26T06:31:03;10.10;95.80
360;DHT22;168;48.872;9.226;2023-03-26T06:36:59;10.10;95.80
360;DHT22;168;48.872;9.226;2023-03-26T06:39:27;10.20;95.80
360;DHT22;168;48.872;9.226;2023-03-26T06:41:56;10.30;95.70
360;DHT22;168;48.872;9.226;2023-03-26T06:44:27;10.40;95.50
360;DHT22;168;48.872;9.226;2023-03-26T06:46:57;10.40;95.70
360;DHT22;168;48.872;9.226;2023-03-26T06:49:26;10.50;95.70
360;DHT22;168;48.872;9.226;2023-03-26T06:52:07;10.60;95.60
360;DHT22;168;48.872;9.226;2023-03-26T06:54:35;10.70;95.40
360;DHT22;168;48.872;9.226;2023-03-26T06:57:04;10.80;94.70
360;DHT22;168;48.872;9.226;2023-03-26T06:59:42;10.80;94.50
360;DHT22;168;48.872;9.226;2023-03-26T07:02:13;11.00;94.00
360;DHT22;168;48.872;9.226;2023-03-26T07:04:43;11.00;93.00
360;DHT22;168;48.872;9.226;2023-03-26T07:07:15;11.00;93.10
360;DHT22;168;48.872;9.226;2023-03-26T07:09:47;11.00;92.90
360;DHT22;168;48.872;9.226;2023-03-26T07:12:27;10.90;92.60
360;DHT22;168;48.872;9.226;2023-03-26T07:15:15;10.80;92.80
360;DHT22;168;48.872;9.226;2023-03-26T07:17:52;10.70;93.20
360;DHT22;168;48.872;9.226;2023-03-26T07:23:28;10.60;94.20
360;DHT22;168;48.872;9.226;2023-03-26T07:25:56;10.70;93.80
360;DHT22;168;48.872;9.226;2023-03-26T07:28:31;10.80;92.90
360;DHT22;168;48.872;9.226;2023-03-26T07:31:18;10.70;93.10
360;DHT22;168;48.872;9.226;2023-03-26T07:34:05;10.60;94.10
360;DHT22;168;48.872;9.226;2023-03-26T07:36:44;10.50;94.40
360;DHT22;168;48.872;9.226;2023-03-26T07:39:22;10.60;94.70
360;DHT22;168;48.872;9.226;2023-03-26T07:42:00;10.60;95.10
360;DHT22;168;48.872;9.226;2023-03-26T07:44:42;10.60;95.20
360;DHT22;168;48.872;9.226;2023-03-26T07:47:24;10.70;95.20
360;DHT22;168;48.872;9.226;2023-03-26T07:49:54;10.70;94.10
360;DHT22;168;48.872;9.226;2023-03-26T07:52:23;10.70;94.30
360;DHT22;168;48.872;9.226;2023-03-26T07:54:51;10.70;95.00
360;DHT22;168;48.872;9.226;2023-03-26T07:57:30;10.60;95.50
360;DHT22;168;48.872;9.226;2023-03-26T08:00:06;10.50;96.00
360;DHT22;168;48.872;9.226;2023-03-26T08:03:12;10.50;96.00
360;DHT22;168;48.872;9.226;2023-03-26T08:05:51;10.40;96.10
360;DHT22;168;48.872;9.226;2023-03-26T08:08:26;10.40;96.30
360;DHT22;168;48.872;9.226;2023-03-26T08:11:06;10.40;96.30
360;DHT22;168;48.872;9.226;2023-03-26T08:13:46;10.40;96.30
360;DHT22;168;48.872;9.226;2023-03-26T08:16:23;10.50;96.30
360;DHT22;168;48.872;9.226;2023-03-26T08:19:00;10.50;96.10
360;DHT22;168;48.872;9.226;2023-03-26T08:21:33;10.40;96.00
360;DHT22;168;48.872;9.226;2023-03-26T08:24:10;10.40;96.10
360;DHT22;168;48.872;9.226;2023-03-26T08:26:46;10.50;96.10
360;DHT22;168;48.872;9.226;2023-03-26T08:29:24;10.50;96.10
360;DHT22;168;48.872;9.226;2023-03-26T08:31:57;10.50;96.10
360;DHT22;168;48.872;9.226;2023-03-26T08:34:26;10.60;96.20
360;DHT22;168;48.872;9.226;2023-03-26T08:36:56;10.50;95.80
360;DHT22;168;48.872;9.226;2023-03-26T08:39:23;10.50;95.70
360;DHT22;168;48.872;9.226;2023-03-26T08:42:18;10.50;95.80
360;DHT22;168;48.872;9.226;2023-03-26T08:45:23;10.60;95.80
360;DHT22;168;48.872;9.226;2023-03-26T08:54:41;10.50;95.00
360;DHT22;168;48.872;9.226;2023-03-26T08:57:41;10.60;95.20
360;DHT22;168;48.872;9.226;2023-03-26T09:03:33;10.70;95.10
360;DHT22;168;48.872;9.226;2023-03-26T09:06:37;10.80;95.10
360;DHT22;168;48.872;9.226;2023-03-26T09:19:17;11.10;95.50
360;DHT22;168;48.872;9.226;2023-03-26T09:34:31;11.70;95.80
360;DHT22;168;48.872;9.226;2023-03-26T09:37:21;11.80;95.70
360;DHT22;168;48.872;9.226;2023-03-26T09:40:01;11.80;95.90
360;DHT22;168;48.872;9.226;2023-03-26T09:42:40;11.80;95.60
360;DHT22;168;48.872;9.226;2023-03-26T09:45:23;11.80;95.80
360;DHT22;168;48.872;9.226;2023-03-26T09:48:33;12.10;95.80
360;DHT22;168;48.872;9.226;2023-03-26T09:51:35;12.40;95.70
360;DHT22;168;48.872;9.226;2023-03-26T09:54:35;12.70;95.50
360;DHT22;168;48.872;9.226;2023-03-26T09:57:17;12.80;95.30
360;DHT22;168;48.872;9.226;2023-03-26T10:00:05;13.00;95.30
360;DHT22;168;48.872;9.226;2023-03-26T10:02:48;13.00;94.90
360;DHT22;168;48.872;9.226;2023-03-26T10:05:34;13.00;94.10
360;DHT22;168;48.872;9.226;2023-03-26T10:11:04;13.10;94.10
360;DHT22;168;48.872;9.226;2023-03-26T10:13:43;13.20;94.30
360;DHT22;168;48.872;9.226;2023-03-26T10:16:22;13.30;93.30
360;DHT22;168;48.872;9.226;2023-03-26T10:21:57;13.40;93.00
360;DHT22;168;48.872;9.226;2023-03-26T10:27:38;13.40;92.80
360;DHT22;168;48.872;9.226;2023-03-26T10:30:24;13.40;93.50
360;DHT22;168;48.872;9.226;2023-03-26T10:33:01;13.40;93.40
360;DHT22;168;48.872;9.226;2023-03-26T10:35:43;13.50;92.40
360;DHT22;168;48.872;9.226;2023-03-26T10:38:15;13.30;89.40
360;DHT22;168;48.872;9.226;2023-03-26T10:40:57;13.20;90.60
360;DHT22;168;48.872;9.226;2023-03-26T10:46:47;13.10;89.80
360;DHT22;168;48.872;9.226;2023-03-26T10:49:44;13.30;90.60
360;DHT22;168;48.872;9.226;2023-03-26T10:52:19;13.30;87.10
360;DHT22;168;48.872;9.226;2023-03-26T10:54:54;13.30;85.50
360;DHT22;168;48.872;9.226;2023-03-26T10:57:43;13.30;84.70
360;DHT22;168;48.872;9.226;2023-03-26T11:00:17;13.40;83.10
360;DHT22;168;48.872;9.226;2023-03-26T11:03:17;13.40;77.40
360;DHT22;168;48.872;9.226;2023-03-26T11:05:51;13.40;78.90
360;DHT22;168;48.872;9.226;2023-03-26T11:08:24;13.50;76.40
360;DHT22;168;48.872;9.226;2023-03-26T11:11:13;13.60;73.70
360;DHT22;168;48.872;9.226;2023-03-26T11:13:51;13.60;73.70
360;DHT22;168;48.872;9.226;2023-03-26T11:16:29;13.70;75.60
360;DHT22;168;48.872;9.226;2023-03-26T11:19:02;13.90;72.30
360;DHT22;168;48.872;9.226;2023-03-26T11:21:35;13.90;71.40
360;DHT22;168;48.872;9.226;2023-03-26T11:24:21;14.00;71.80
360;DHT22;168;48.872;9.226;2023-03-26T11:26:55;14.00;72.20
360;DHT22;168;48.872;9.226;2023-03-26T11:29:38;14.00;73.60
360;DHT22;168;48.872;9.226;2023-03-26T11:32:11;14.00;73.90
360;DHT22;168;48.872;9.226;2023-03-26T11:34:41;14.10;74.10
360;DHT22;168;48.872;9.226;2023-03-26T11:37:17;14.20;70.00
360;DHT22;168;48.872;9.226;2023-03-26T11:39:49;14.30;69.30
360;DHT22;168;48.872;9.226;2023-03-26T11:42:21;14.40;70.80
360;DHT22;168;48.872;9.226;2023-03-26T11:44:54;14.40;70.20
360;DHT22;168;48.872;9.226;2023-03-26T11:47:29;14.40;69.70
360;DHT22;168;48.872;9.226;2023-03-26T11:49:59;14.40;67.70
360;DHT22;168;48.872;9.226;2023-03-26T11:52:43;14.30;67.90
360;DHT22;168;48.872;9.226;2023-03-26T11:55:11;14.30;69.80
360;DHT22;168;48.872;9.226;2023-03-26T11:57:41;14.10;75.90
360;DHT22;168;48.872;9.226;2023-03-26T12:00:15;13.70;78.30
360;DHT22;168;48.872;9.226;2023-03-26T12:02:47;13.20;80.20
360;DHT22;168;48.872;9.226;2023-03-26T12:05:18;13.00;81.70
360;DHT22;168;48.872;9.226;2023-03-26T12:07:51;12.80;83.40
360;DHT22;168;48.872;9.226;2023-03-26T12:10:26;12.70;84.90
360;DHT22;168;48.872;9.226;2023-03-26T12:12:58;12.70;84.50
360;DHT22;168;48.872;9.226;2023-03-26T12:15:28;12.60;85.50
360;DHT22;168;48.872;9.226;2023-03-26T12:17:59;12.30;92.70
360;DHT22;168;48.872;9.226;2023-03-26T12:20:44;11.40;94.30
360;DHT22;168;48.872;9.226;2023-03-26T12:23:36;10.90;95.30
360;DHT22;168;48.872;9.226;2023-03-26T12:26:12;10.70;95.00
360;DHT22;168;48.872;9.226;2023-03-26T12:28:44;10.60;93.70
360;DHT22;168;48.872;9.226;2023-03-26T12:31:13;10.50;94.70
360;DHT22;168;48.872;9.226;2023-03-26T12:33:49;10.50;95.40
360;DHT22;168;48.872;9.226;2023-03-26T12:36:22;10.60;95.40
360;DHT22;168;48.872;9.226;2023-03-26T12:38:51;10.80;95.00
360;DHT22;168;48.872;9.226;2023-03-26T12:41:20;11.00;96.30
360;DHT22;168;48.872;9.226;2023-03-26T12:44:18;11.30;95.70
360;DHT22;168;48.872;9.226;2023-03-26T12:46:49;11.50;95.40
360;DHT22;168;48.872;9.226;2023-03-26T12:49:20;11.70;93.10
360;DHT22;168;48.872;9.226;2023-03-26T12:51:49;11.80;91.20
360;DHT22;168;48.872;9.226;2023-03-26T12:54:33;11.70;90.70
360;DHT22;168;48.872;9.226;2023-03-26T12:57:18;11.80;90.60
360;DHT22;168;48.872;9.226;2023-03-26T12:59:56;12.00;89.90
360;DHT22;168;48.872;9.226;2023-03-26T13:02:53;12.30;88.30
360;DHT22;168;48.872;9.226;2023-03-26T13:05:36;12.50;84.90
360;DHT22;168;48.872;9.226;2023-03-26T13:11:06;12.80;84.10
360;DHT22;168;48.872;9.226;2023-03-26T13:14:03;13.00;80.00
360;DHT22;168;48.872;9.226;2023-03-26T13:16:36;13.00;80.80
360;DHT22;168;48.872;9.226;2023-03-26T13:19:14;13.10;80.40
360;DHT22;168;48.872;9.226;2023-03-26T13:21:57;13.30;80.90
360;DHT22;168;48.872;9.226;2023-03-26T13:24:34;13.40;77.00
360;DHT22;168;48.872;9.226;2023-03-26T13:27:15;13.40;74.50
360;DHT22;168;48.872;9.226;2023-03-26T13:29:53;13.50;75.50
360;DHT22;168;48.872;9.226;2023-03-26T13:32:32;13.80;74.80
360;DHT22;168;48.872;9.226;2023-03-26T13:35:14;13.90;74.00
360;DHT22;168;48.872;9.226;2023-03-26T13:37:51;14.00;73.20
360;DHT22;168;48.872;9.226;2023-03-26T13:40:24;13.90;73.80
360;DHT22;168;48.872;9.226;2023-03-26T13:43:05;13.70;73.70
360;DHT22;168;48.872;9.226;2023-03-26T13:45:45;13.50;74.70
360;DHT22;168;48.872;9.226;2023-03-26T13:48:20;13.40;76.20
360;DHT22;168;48.872;9.226;2023-03-26T13:50:57;13.20;77.20
360;DHT22;168;48.872;9.226;2023-03-26T13:53:31;13.20;78.50
360;DHT22;168;48.872;9.226;2023-03-26T13:56:00;13.10;78.80
360;DHT22;168;48.872;9.226;2023-03-26T13:58:33;13.20;78.30
360;DHT22;168;48.872;9.226;2023-03-26T14:01:05;13.20;77.50
360;DHT22;168;48.872;9.226;2023-03-26T14:03:43;13.20;77.00
360;DHT22;168;48.872;9.226;2023-03-26T14:06:29;13.10;77.60
360;DHT22;168;48.872;9.226;2023-03-26T14:09:03;13.20;77.10
360;DHT22;168;48.872;9.226;2023-03-26T14:11:43;13.30;77.20
360;DHT22;168;48.872;9.226;2023-03-26T14:14:17;13.30;78.30
360;DHT22;168;48.872;9.226;2023-03-26T14:16:48;13.40;77.80
360;DHT22;168;48.872;9.226;2023-03-26T14:19:38;13.50;77.80
360;DHT22;168;48.872;9.226;2023-03-26T14:22:16;13.70;77.90
360;DHT22;168;48.872;9.226;2023-03-26T14:25:09;13.90;76.20
360;DHT22;168;48.872;9.226;2023-03-26T14:27:55;13.80;76.90
360;DHT22;168;48.872;9.226;2023-03-26T14:30:45;13.90;76.40
360;DHT22;168;48.872;9.226;2023-03-26T14:33:30;13.80;76.40
360;DHT22;168;48.872;9.226;2023-03-26T14:36:13;13.70;77.30
360;DHT22;168;48.872;9.226;2023-03-26T14:41:49;13.60;76.10
360;DHT22;168;48.872;9.226;2023-03-26T14:47:21;13.10;75.00
360;DHT22;168;48.872;9.226;2023-03-26T14:50:27;12.50;77.20
360;DHT22;168;48.872;9.226;2023-03-26T14:53:04;12.30;79.10
360;DHT22;168;48.872;9.226;2023-03-26T14:58:58;11.80;88.10
360;DHT22;168;48.872;9.226;2023-03-26T15:01:58;11.60;88.90
360;DHT22;168;48.872;9.226;2023-03-26T15:04:46;11.50;89.80
360;DHT22;168;48.872;9.226;2023-03-26T15:07:51;11.60;88.80
360;DHT22;168;48.872;9.226;2023-03-26T15:11:05;11.70;87.20
360;DHT22;168;48.872;9.226;2023-03-26T15:17:01;11.50;87.90
360;DHT22;168;48.872;9.226;2023-03-26T15:20:07;10.50;92.50
360;DHT22;168;48.872;9.226;2023-03-26T15:23:30;9.70;95.20
360;DHT22;168;48.872;9.226;2023-03-26T15:29:54;9.10;96.00
360;DHT22;168;48.872;9.226;2023-03-26T15:35:58;9.00;96.00
360;DHT22;168;48.872;9.226;2023-03-26T15:39:20;8.90;95.40
360;DHT22;168;48.872;9.226;2023-03-26T15:41:57;8.80;95.00
360;DHT22;168;48.872;9.226;2023-03-26T15:44:48;8.80;94.30
360;DHT22;168;48.872;9.226;2023-03-26T15:47:42;8.70;93.90
360;DHT22;168;48.872;9.226;2023-03-26T15:50:27;8.60;93.70
360;DHT22;168;48.872;9.226;2023-03-26T15:53:04;8.60;94.00
360;DHT22;168;48.872;9.226;2023-03-26T15:55:41;8.60;94.80
360;DHT22;168;48.872;9.226;2023-03-26T15:58:14;8.50;94.90
360;DHT22;168;48.872;9.226;2023-03-26T16:00:52;8.50;95.50
360;DHT22;168;48.872;9.226;2023-03-26T16:03:30;8.40;95.20
360;DHT22;168;48.872;9.226;2023-03-26T16:09:13;8.50;94.20
360;DHT22;168;48.872;9.226;2023-03-26T16:11:51;8.60;95.00
360;DHT22;168;48.872;9.226;2023-03-26T16:14:22;8.70;94.60
360;DHT22;168;48.872;9.226;2023-03-26T16:16:54;8.80;94.90
360;DHT22;168;48.872;9.226;2023-03-26T16:19:48;9.00;95.50
360;DHT22;168;48.872;9.226;2023-03-26T16:22:52;9.10;95.60
360;DHT22;168;48.872;9.226;2023-03-26T16:25:27;9.10;95.50
360;DHT22;168;48.872;9.226;2023-03-26T16:28:26;9.20;96.40
360;DHT22;168;48.872;9.226;2023-03-26T16:31:17;9.30;96.20
360;DHT22;168;48.872;9.226;2023-03-26T16:33:52;9.30;96.50
360;DHT22;168;48.872;9.226;2023-03-26T16:36:29;9.30;96.10
360;DHT22;168;48.872;9.226;2023-03-26T16:39:17;9.30;96.50
360;DHT22;168;48.872;9.226;2023-03-26T16:41:59;9.30;95.90
360;DHT22;168;48.872;9.226;2023-03-26T16:44:35;9.30;96.30
360;DHT22;168;48.872;9.226;2023-03-26T16:47:14;9.30;96.30
360;DHT22;168;48.872;9.226;2023-03-26T16:49:52;9.30;96.10
360;DHT22;168;48.872;9.226;2023-03-26T16:52:33;9.30;96.20
360;DHT22;168;48.872;9.226;2023-03-26T16:55:17;9.30;96.20
360;DHT22;168;48.872;9.226;2023-03-26T16:57:52;9.40;96.30
360;DHT22;168;48.872;9.226;2023-03-26T17:00:33;9.30;96.00
360;DHT22;168;48.872;9.226;2023-03-26T17:03:30;9.10;96.10
360;DHT22;168;48.872;9.226;2023-03-26T17:06:08;9.10;96.10
360;DHT22;168;48.872;9.226;2023-03-26T17:08:47;9.10;96.20
360;DHT22;168;48.872;9.226;2023-03-26T17:11:23;9.10;96.00
360;DHT22;168;48.872;9.226;2023-03-26T17:14:02;9.20;96.10
360;DHT22;168;48.872;9.226;2023-03-26T17:16:36;9.20;96.10
360;DHT22;168;48.872;9.226;2023-03-26T17:19:17;9.20;96.00
360;DHT22;168;48.872;9.226;2023-03-26T17:21:53;9.10;96.00
360;DHT22;168;48.872;9.226;2023-03-26T17:24:30;9.10;96.10
360;DHT22;168;48.872;9.226;2023-03-26T17:27:07;9.10;95.90
360;DHT22;168;48.872;9.226;2023-03-26T17:30:02;9.10;96.00
360;DHT22;168;48.872;9.226;2023-03-26T17:32:54;9.10;96.10
360;DHT22;168;48.872;9.226;2023-03-26T17:35:40;9.20;95.80
360;DHT22;168;48.872;9.226;2023-03-26T17:41:50;9.10;96.00
360;DHT22;168;48.872;9.226;2023-03-26T17:44:37;9.10;96.00
360;DHT22;168;48.872;9.226;2023-03-26T17:47:17;9.20;96.00
360;DHT22;168;48.872;9.226;2023-03-26T17:49:49;9.30;96.10
360;DHT22;168;48.872;9.226;2023-03-26T17:52:22;9.40;95.80
360;DHT22;168;48.872;9.226;2023-03-26T17:54:53;9.40;95.60
360;DHT22;168;48.872;9.226;2023-03-26T17:57:26;9.30;95.80
360;DHT22;168;48.872;9.226;2023-03-26T17:59:58;9.30;96.10
360;DHT22;168;48.872;9.226;2023-03-26T18:02:33;9.30;95.90
360;DHT22;168;48.872;9.226;2023-03-26T18:05:02;9.30;96.00
360;DHT22;168;48.872;9.226;2023-03-26T18:08:07;9.30;95.70
360;DHT22;168;48.872;9.226;2023-03-26T18:11:15;9.20;95.70
360;DHT22;168;48.872;9.226;2023-03-26T18:14:26;9.20;95.90
360;DHT22;168;48.872;9.226;2023-03-26T18:16:59;9.10;95.90
360;DHT22;168;48.872;9.226;2023-03-26T18:19:28;9.20;95.80
360;DHT22;168;48.872;9.226;2023-03-26T18:22:02;9.20;95.70
360;DHT22;168;48.872;9.226;2023-03-26T18:24:32;9.20;95.80
360;DHT22;168;48.872;9.226;2023-03-26T18:27:05;9.10;95.90
360;DHT22;168;48.872;9.226;2023-03-26T18:29:35;9.20;95.90
360;DHT22;168;48.872;9.226;2023-03-26T18:32:20;9.20;96.00
360;DHT22;168;48.872;9.226;2023-03-26T18:34:52;9.10;96.20
360;DHT22;168;48.872;9.226;2023-03-26T18:37:23;9.10;96.00
360;DHT22;168;48.872;9.226;2023-03-26T18:39:57;9.10;96.10
360;DHT22;168;48.872;9.226;2023-03-26T18:42:28;9.20;96.20
360;DHT22;168;48.872;9.226;2023-03-26T18:44:59;9.20;95.90
360;DHT22;168;48.872;9.226;2023-03-26T18:47:29;9.10;95.80
360;DHT22;168;48.872;9.226;2023-03-26T18:49:58;9.20;95.70
360;DHT22;168;48.872;9.226;2023-03-26T18:52:27;9.10;95.70
360;DHT22;168;48.872;9.226;2023-03-26T18:54:56;9.10;95.80
360;DHT22;168;48.872;9.226;2023-03-26T18:57:27;9.00;96.00
360;DHT22;168;48.872;9.226;2023-03-26T19:00:07;9.00;95.90
360;DHT22;168;48.872;9.226;2023-03-26T19:02:43;9.00;95.90
360;DHT22;168;48.872;9.226;2023-03-26T19:05:13;9.00;95.50
360;DHT22;168;48.872;9.226;2023-03-26T19:07:42;8.90;95.60
360;DHT22;168;48.872;9.226;2023-03-26T19:10:14;8.90;95.70
360;DHT22;168;48.872;9.226;2023-03-26T19:12:44;8.80;95.90
360;DHT22;168;48.872;9.226;2023-03-26T19:15:15;8.60;96.20